Time;durP1;ratioP1;P1;durP2;ratioP2;P2;SDS_P1;SDS_P2;PMS_P1;PMS_P2;Temp;Humidity;BMP_temperature;BMP_pressure;BME280_temperature;BME280_humidity;BME280_pressure;Samples;Min_cycle;Max_cycle;Signal;HPM_P1;HPM_P2
2024/03/07 00:00:03;;;;;;;6.32;3.13;;;10.40;59.00;;;;;;4831303;29;20471;-77
2024/03/07 00:02:38;;;;;;;6.97;3.20;;;10.40;59.20;;;;;;4836596;29;20696;-77
2024/03/07 00:05:04;;;;;;;4.50;3.15;;;10.40;58.90;;;;;;4832585;29;20698;-77
2024/03/07 00:07:30;;;;;;;7.03;3.13;;;10.40;58.90;;;;;;4831709;29;20034;-76
2024/03/07 00:09:57;;;;;;;8.23;3.70;;;10.30;58.90;;;;;;4831128;29;20176;-76
2024/03/07 00:12:23;;;;;;;7.72;3.13;;;10.30;58.90;;;;;;4830863;29;20513;-76
2024/03/07 00:14:50;;;;;;;5.10;2.97;;;10.30;58.70;;;;;;4830808;29;20038;-76
2024/03/07 00:17:17;;;;;;;4.28;2.83;;;10.30;58.60;;;;;;4830801;29;20091;-77
2024/03/07 00:19:43;;;;;;;5.18;3.13;;;10.30;58.60;;;;;;4830850;29;20106;-77
2024/03/07 00:22:09;;;;;;;6.22;3.00;;;10.30;58.60;;;;;;4844901;29;20505;-77
2024/03/07 00:24:36;;;;;;;4.20;3.00;;;10.30;58.30;;;;;;4845107;29;20045;-77
2024/03/07 00:27:03;;;;;;;6.47;3.28;;;10.30;58.40;;;;;;4844946;29;20052;-77
2024/03/07 00:29:29;;;;;;;6.97;3.53;;;10.30;58.70;;;;;;4830791;29;20076;-76
2024/03/07 00:31:55;;;;;;;5.85;3.30;;;10.30;58.70;;;;;;4831179;29;20470;-76
2024/03/07 00:34:23;;;;;;;5.97;3.10;;;10.30;58.60;;;;;;4830589;29;20042;-77
2024/03/07 00:36:49;;;;;;;6.95;3.65;;;10.30;58.60;;;;;;4830157;29;20081;-77
2024/03/07 00:39:15;;;;;;;5.60;3.38;;;10.30;58.70;;;;;;4831381;29;20034;-77
2024/03/07 00:41:41;;;;;;;5.07;2.90;;;10.30;59.00;;;;;;4830034;29;20041;-77
2024/03/07 00:44:11;;;;;;;5.53;2.88;;;10.30;58.70;;;;;;4847089;29;20092;-77
2024/03/07 00:46:37;;;;;;;6.60;3.08;;;10.30;58.90;;;;;;4834626;29;20034;-78
2024/03/07 00:49:04;;;;;;;7.70;3.40;;;10.30;58.90;;;;;;4834114;29;20046;-77
2024/03/07 00:51:30;;;;;;;6.13;3.58;;;10.30;58.90;;;;;;4833005;29;20030;-78
2024/03/07 00:53:57;;;;;;;9.30;3.42;;;10.30;59.00;;;;;;4829647;29;20033;-78
2024/03/07 00:56:24;;;;;;;12.95;3.47;;;10.30;58.70;;;;;;4834607;29;20046;-78
2024/03/07 00:58:51;;;;;;;8.07;3.97;;;10.20;58.60;;;;;;4833207;29;20141;-77
2024/03/07 01:01:18;;;;;;;7.07;3.88;;;10.20;58.80;;;;;;4836537;29;20038;-78
2024/03/07 01:03:45;;;;;;;6.82;3.70;;;10.30;59.00;;;;;;4849042;29;21443;-77
2024/03/07 01:06:11;;;;;;;4.82;2.97;;;10.20;58.90;;;;;;4837551;29;20044;-77
2024/03/07 01:08:38;;;;;;;4.85;3.50;;;10.20;58.90;;;;;;4837061;29;20034;-78
2024/03/07 01:11:09;;;;;;;9.05;3.55;;;10.20;58.80;;;;;;4836762;29;20061;-77
2024/03/07 01:13:36;;;;;;;5.38;3.63;;;10.20;59.00;;;;;;4851851;29;20030;-78
2024/03/07 01:16:02;;;;;;;9.38;3.92;;;10.20;59.20;;;;;;4835683;29;20044;-78
2024/03/07 01:18:29;;;;;;;6.68;3.33;;;10.20;59.20;;;;;;4834069;29;20077;-79
2024/03/07 01:20:55;;;;;;;6.63;3.60;;;10.20;59.10;;;;;;4834820;29;20042;-79
2024/03/07 01:23:21;;;;;;;6.50;3.45;;;10.20;58.80;;;;;;4838537;29;20061;-79
2024/03/07 01:25:47;;;;;;;5.85;3.65;;;10.20;58.60;;;;;;4836940;29;20034;-79
2024/03/07 01:28:14;;;;;;;7.05;3.67;;;10.20;58.60;;;;;;4851736;29;20080;-78
2024/03/07 01:30:40;;;;;;;5.75;3.38;;;10.20;58.50;;;;;;4836921;29;20486;-78
2024/03/07 01:33:06;;;;;;;6.25;3.70;;;10.20;58.40;;;;;;4850019;29;20125;-78
2024/03/07 01:35:32;;;;;;;6.18;3.40;;;10.20;58.40;;;;;;4836541;29;20455;-77
2024/03/07 01:37:58;;;;;;;10.00;3.20;;;10.20;58.40;;;;;;4832992;29;20030;-78
2024/03/07 01:40:24;;;;;;;5.50;3.83;;;10.20;58.60;;;;;;4821231;29;20049;-77
2024/03/07 01:42:50;;;;;;;5.40;3.30;;;10.20;58.70;;;;;;4834685;29;20117;-78
2024/03/07 01:45:19;;;;;;;4.63;3.00;;;10.20;58.70;;;;;;4836001;29;20037;-77
2024/03/07 01:47:46;;;;;;;8.38;3.80;;;10.10;58.80;;;;;;4837257;29;20753;-78
2024/03/07 01:50:12;;;;;;;5.18;3.00;;;10.20;58.90;;;;;;4834768;29;20102;-79
2024/03/07 01:52:41;;;;;;;4.53;3.30;;;10.20;58.90;;;;;;4849692;29;20124;-79
2024/03/07 01:55:09;;;;;;;6.47;3.63;;;10.20;59.00;;;;;;4833660;29;20571;-79
2024/03/07 01:57:36;;;;;;;6.40;3.22;;;10.20;59.10;;;;;;4850764;29;20139;-80
2024/03/07 02:00:06;;;;;;;7.38;3.25;;;10.10;59.00;;;;;;4835441;29;20093;-78
2024/03/07 02:02:33;;;;;;;5.90;3.00;;;10.10;59.00;;;;;;4835335;29;20030;-80
2024/03/07 02:04:59;;;;;;;6.30;3.13;;;10.10;58.70;;;;;;4850250;29;20363;-80
2024/03/07 02:07:26;;;;;;;4.95;3.35;;;10.20;58.70;;;;;;4820941;29;21334;-78
2024/03/07 02:10:05;;;;;;;6.03;3.17;;;10.10;58.80;;;;;;4849352;29;20086;-79
2024/03/07 02:12:32;;;;;;;7.82;3.13;;;10.10;58.80;;;;;;4835169;29;20091;-78
2024/03/07 02:14:58;;;;;;;4.97;2.83;;;10.10;58.90;;;;;;4836411;29;20536;-78
2024/03/07 02:17:25;;;;;;;8.80;3.45;;;10.10;59.10;;;;;;4836201;29;21492;-78
2024/03/07 02:19:52;;;;;;;4.90;3.50;;;10.10;59.00;;;;;;4835571;29;20054;-78
2024/03/07 02:22:19;;;;;;;4.45;2.65;;;10.10;59.00;;;;;;4835988;29;20044;-78
2024/03/07 02:24:46;;;;;;;4.82;3.05;;;10.10;58.90;;;;;;4835266;29;20038;-79
2024/03/07 02:27:14;;;;;;;5.15;3.30;;;10.00;59.00;;;;;;4835152;29;20494;-78
2024/03/07 02:29:41;;;;;;;8.68;3.50;;;10.10;59.10;;;;;;4832856;29;20046;-78
2024/03/07 02:32:07;;;;;;;3.88;2.80;;;10.00;58.90;;;;;;4833112;29;20042;-79
2024/03/07 02:34:34;;;;;;;5.30;3.00;;;10.10;58.60;;;;;;4834313;29;20501;-78
2024/03/07 02:37:00;;;;;;;4.72;2.90;;;10.00;58.50;;;;;;4835727;29;20045;-79
2024/03/07 02:39:26;;;;;;;5.88;3.05;;;10.10;58.50;;;;;;4834886;29;20038;-79
2024/03/07 02:41:52;;;;;;;5.72;3.15;;;10.00;58.40;;;;;;4832828;29;20037;-80
2024/03/07 02:44:19;;;;;;;4.72;3.13;;;10.00;58.40;;;;;;4831883;29;20077;-81
2024/03/07 02:46:46;;;;;;;5.72;3.55;;;10.10;58.30;;;;;;4849203;29;21163;-81
2024/03/07 02:49:14;;;;;;;5.30;2.78;;;10.00;58.40;;;;;;4820034;29;20041;-81
2024/03/07 02:51:43;;;;;;;4.75;2.95;;;10.00;58.40;;;;;;4833100;29;20070;-81
2024/03/07 02:54:09;;;;;;;6.07;3.17;;;10.00;58.50;;;;;;4834849;29;20649;-80
2024/03/07 02:56:35;;;;;;;4.65;3.03;;;10.00;58.60;;;;;;4847813;29;20042;-81
2024/03/07 02:59:01;;;;;;;5.05;3.05;;;10.00;58.70;;;;;;4835903;29;20375;-80
2024/03/07 03:01:27;;;;;;;5.95;2.85;;;10.00;58.60;;;;;;4818489;29;20049;-80
2024/03/07 03:03:53;;;;;;;5.65;2.60;;;10.00;58.60;;;;;;4832620;29;20045;-79
2024/03/07 03:06:20;;;;;;;5.47;3.08;;;10.00;58.80;;;;;;4819638;29;20407;-80
2024/03/07 03:08:47;;;;;;;5.97;2.97;;;10.00;58.60;;;;;;4835448;29;20625;-81
2024/03/07 03:11:13;;;;;;;4.70;2.85;;;10.00;58.70;;;;;;4832983;29;20035;-81
2024/03/07 03:13:40;;;;;;;3.97;2.65;;;10.00;58.70;;;;;;4818538;29;20042;-79
2024/03/07 03:16:07;;;;;;;5.70;3.15;;;10.00;58.30;;;;;;4830326;29;20466;-79
2024/03/07 03:18:36;;;;;;;4.47;2.90;;;10.00;58.30;;;;;;4832066;29;20038;-80
2024/03/07 03:21:03;;;;;;;5.97;2.88;;;9.90;58.10;;;;;;4832877;29;20541;-81
2024/03/07 03:23:29;;;;;;;6.57;2.95;;;10.00;58.30;;;;;;4831933;29;20134;-80
2024/03/07 03:25:55;;;;;;;4.97;2.50;;;10.00;58.40;;;;;;4849427;29;20038;-81
2024/03/07 03:28:21;;;;;;;5.35;2.97;;;9.90;58.30;;;;;;4833103;29;20421;-81
2024/03/07 03:30:49;;;;;;;3.33;2.63;;;10.00;58.30;;;;;;4832622;29;20052;-82
2024/03/07 03:33:15;;;;;;;4.57;2.40;;;9.90;58.30;;;;;;4848845;29;20038;-79
2024/03/07 03:35:42;;;;;;;5.75;2.53;;;9.90;58.40;;;;;;4832977;29;20538;-79
2024/03/07 03:38:09;;;;;;;5.55;2.75;;;9.90;58.30;;;;;;4833198;29;20101;-81
2024/03/07 03:40:35;;;;;;;4.50;2.92;;;9.90;58.20;;;;;;4850626;29;20069;-79
2024/03/07 03:43:01;;;;;;;5.63;2.65;;;9.90;58.10;;;;;;4846392;29;20041;-82
2024/03/07 03:45:27;;;;;;;4.05;2.63;;;9.90;57.80;;;;;;4833481;29;20134;-80
2024/03/07 03:47:54;;;;;;;4.68;2.90;;;9.90;57.70;;;;;;4832371;29;20041;-80
2024/03/07 03:50:23;;;;;;;5.22;2.80;;;9.90;57.70;;;;;;4832338;29;20042;-82
2024/03/07 03:52:49;;;;;;;4.13;2.45;;;9.90;57.50;;;;;;4833524;29;20401;-83
2024/03/07 03:55:16;;;;;;;4.47;2.90;;;9.90;57.70;;;;;;4833767;29;20034;-83
2024/03/07 03:57:43;;;;;;;4.60;2.58;;;9.90;57.70;;;;;;4849315;29;20090;-83
2024/03/07 04:00:13;;;;;;;4.28;2.60;;;9.90;57.60;;;;;;4834533;29;20650;-82
2024/03/07 04:02:47;;;;;;;4.18;2.95;;;9.90;57.70;;;;;;4836311;29;20057;-84
2024/03/07 04:05:14;;;;;;;5.90;2.58;;;9.90;58.00;;;;;;4852059;29;20045;-84
2024/03/07 04:07:44;;;;;;;5.47;2.90;;;9.90;58.00;;;;;;4839756;29;20116;-84
2024/03/07 04:10:11;;;;;;;4.55;2.75;;;9.90;58.00;;;;;;4834618;29;20409;-81
2024/03/07 04:12:40;;;;;;;5.60;2.85;;;9.90;58.10;;;;;;4848207;29;20054;-80
2024/03/07 04:15:08;;;;;;;7.15;3.25;;;9.90;58.20;;;;;;4841045;29;20050;-80
2024/03/07 04:17:38;;;;;;;4.57;2.70;;;9.90;58.20;;;;;;4824530;29;20080;-79
2024/03/07 04:20:05;;;;;;;5.55;3.00;;;9.90;58.30;;;;;;4837307;29;20045;-78
2024/03/07 04:22:32;;;;;;;3.13;2.63;;;9.80;58.30;;;;;;4838344;29;20034;-83
2024/03/07 04:24:59;;;;;;;8.25;3.47;;;9.90;58.40;;;;;;4835576;29;20037;-83
2024/03/07 04:27:26;;;;;;;3.70;3.15;;;9.90;58.00;;;;;;4849426;29;20041;-81
2024/03/07 04:29:52;;;;;;;5.35;2.95;;;9.80;58.00;;;;;;4831531;29;20054;-81
2024/03/07 04:32:18;;;;;;;4.35;2.72;;;9.80;58.00;;;;;;4831448;29;20114;-81
2024/03/07 04:34:44;;;;;;;7.50;3.30;;;9.80;58.70;;;;;;4830461;29;20052;-77
2024/03/07 04:37:11;;;;;;;3.70;2.40;;;9.90;58.90;;;;;;4830753;29;20442;-81
2024/03/07 04:39:41;;;;;;;8.88;2.90;;;9.90;61.90;;;;;;4846827;29;20049;-79
2024/03/07 04:42:08;;;;;;;8.32;2.97;;;10.00;61.60;;;;;;4830731;29;20505;-89
2024/03/07 04:44:35;;;;;;;4.65;2.65;;;10.10;60.60;;;;;;4848434;29;20045;-83
2024/03/07 04:47:05;;;;;;;5.72;3.50;;;10.00;60.30;;;;;;4831935;29;20038;-81
2024/03/07 04:49:33;;;;;;;3.80;3.00;;;10.00;59.10;;;;;;4832062;29;20038;-88
2024/03/07 04:52:01;;;;;;;5.47;3.03;;;10.00;58.40;;;;;;4818521;29;20042;-82
2024/03/07 04:54:28;;;;;;;4.47;3.30;;;10.00;58.10;;;;;;4831326;29;20124;-86
2024/03/07 04:56:54;;;;;;;8.77;3.75;;;10.00;58.00;;;;;;4832368;29;20095;-85
2024/03/07 04:59:22;;;;;;;8.05;4.00;;;10.00;57.90;;;;;;4833432;29;20450;-82
2024/03/07 05:02:07;;;;;;;8.25;3.97;;;10.00;57.90;;;;;;4848216;29;20042;-82
2024/03/07 05:04:33;;;;;;;6.35;3.58;;;10.00;58.20;;;;;;4802722;29;20119;-84
2024/03/07 05:06:59;;;;;;;7.45;3.60;;;10.00;58.60;;;;;;4833146;29;20050;-80
2024/03/07 05:09:25;;;;;;;7.68;4.05;;;9.90;59.10;;;;;;4843330;29;20060;-79
2024/03/07 05:11:51;;;;;;;7.03;4.00;;;10.00;59.70;;;;;;4829177;29;20052;-79
2024/03/07 05:14:22;;;;;;;7.55;4.30;;;10.00;60.10;;;;;;4829804;29;20126;-78
2024/03/07 05:17:08;;;;;;;8.30;4.53;;;10.00;60.30;;;;;;4833664;29;20038;-78
2024/03/07 05:19:35;;;;;;;10.88;5.18;;;9.90;60.80;;;;;;4848279;29;20046;-79
2024/03/07 05:22:04;;;;;;;10.35;5.00;;;9.90;60.70;;;;;;4832421;29;21376;-78
2024/03/07 05:24:32;;;;;;;9.13;4.75;;;9.90;61.10;;;;;;4847115;29;20041;-78
2024/03/07 05:26:58;;;;;;;8.15;4.53;;;10.00;61.10;;;;;;4832979;29;20153;-78
2024/03/07 05:29:24;;;;;;;10.02;4.90;;;9.90;61.00;;;;;;4833132;29;20130;-79
2024/03/07 05:31:50;;;;;;;9.20;4.80;;;10.00;61.00;;;;;;4825769;29;20394;-78
2024/03/07 05:34:19;;;;;;;6.38;3.90;;;10.00;61.00;;;;;;4832099;29;20042;-79
2024/03/07 05:36:46;;;;;;;6.55;4.35;;;10.00;60.90;;;;;;4834064;29;20061;-79
2024/03/07 05:39:15;;;;;;;7.85;4.70;;;10.00;60.50;;;;;;4820701;29;20037;-80
2024/03/07 05:41:42;;;;;;;8.73;5.45;;;10.10;60.00;;;;;;4834126;29;20042;-80
2024/03/07 05:44:09;;;;;;;8.18;5.20;;;10.10;59.70;;;;;;4846986;29;20455;-80
2024/03/07 05:46:48;;;;;;;10.52;5.38;;;10.20;59.70;;;;;;4835323;29;20038;-78
2024/03/07 05:49:15;;;;;;;8.43;4.72;;;10.30;59.90;;;;;;4836620;29;20042;-78
2024/03/07 05:51:47;;;;;;;7.40;4.72;;;10.40;60.00;;;;;;4836559;29;20154;-79
2024/03/07 05:54:13;;;;;;;8.05;4.65;;;10.40;59.90;;;;;;4851385;29;20041;-86
2024/03/07 05:56:40;;;;;;;7.03;4.25;;;10.50;59.90;;;;;;4835522;29;20048;-80
2024/03/07 05:59:09;;;;;;;6.50;3.95;;;10.60;60.10;;;;;;4850985;29;20137;-79
2024/03/07 06:01:54;;;;;;;6.65;3.55;;;10.70;60.20;;;;;;4836117;29;20037;-79
2024/03/07 06:04:20;;;;;;;9.30;4.53;;;10.70;59.90;;;;;;4836473;29;20050;-79
2024/03/07 06:06:46;;;;;;;7.05;3.70;;;10.80;59.60;;;;;;4851012;29;20431;-79
2024/03/07 06:09:14;;;;;;;5.25;4.00;;;10.90;59.20;;;;;;4850944;29;20052;-79
2024/03/07 06:11:44;;;;;;;6.57;3.75;;;11.00;58.90;;;;;;4848662;29;20038;-79
2024/03/07 06:14:13;;;;;;;5.72;3.58;;;11.00;58.60;;;;;;4865919;29;20037;-80
2024/03/07 06:16:40;;;;;;;6.80;3.67;;;11.10;58.30;;;;;;4836187;29;20136;-80
2024/03/07 06:19:08;;;;;;;5.85;3.08;;;11.20;58.40;;;;;;4835184;29;20046;-79
2024/03/07 06:21:35;;;;;;;5.35;3.08;;;11.20;58.40;;;;;;4833157;29;20045;-80
2024/03/07 06:24:03;;;;;;;4.75;3.35;;;11.30;58.40;;;;;;4836623;29;21704;-79
2024/03/07 06:29:18;;;;;;;3.95;3.30;;;11.50;58.30;;;;;;4837009;29;20050;-79
2024/03/07 06:31:48;;;;;;;6.05;3.92;;;11.60;58.20;;;;;;4835572;29;20042;-79
2024/03/07 06:34:14;;;;;;;4.90;3.88;;;11.70;58.20;;;;;;4832774;29;20034;-78
2024/03/07 06:36:40;;;;;;;9.02;4.30;;;11.80;58.20;;;;;;4848214;29;20553;-78
2024/03/07 06:39:07;;;;;;;6.00;4.32;;;11.80;58.10;;;;;;4834712;29;20044;-80
2024/03/07 06:41:36;;;;;;;6.25;3.85;;;11.90;58.10;;;;;;4835725;29;20454;-78
2024/03/07 06:44:03;;;;;;;5.30;3.13;;;12.00;58.00;;;;;;4848984;29;20029;-79
2024/03/07 06:46:29;;;;;;;8.02;3.30;;;12.10;58.10;;;;;;4836595;29;20053;-79
2024/03/07 06:48:58;;;;;;;5.20;3.67;;;12.10;58.10;;;;;;4849925;29;20038;-77
2024/03/07 06:51:27;;;;;;;5.20;3.55;;;12.20;57.90;;;;;;4835653;29;20041;-77
2024/03/07 06:53:53;;;;;;;4.35;2.95;;;12.30;58.40;;;;;;4832409;29;20530;-78
2024/03/07 06:56:19;;;;;;;4.40;3.17;;;12.40;57.80;;;;;;4832893;29;20042;-80
2024/03/07 06:58:45;;;;;;;5.82;3.20;;;12.50;57.70;;;;;;4831579;29;20132;-77
2024/03/07 07:01:15;;;;;;;5.30;2.72;;;12.60;57.70;;;;;;4844128;29;20047;-80
2024/03/07 07:03:44;;;;;;;4.38;3.15;;;12.70;57.70;;;;;;4834931;29;20045;-79
2024/03/07 07:06:11;;;;;;;4.22;2.85;;;12.70;57.70;;;;;;4832190;29;20061;-79
2024/03/07 07:08:37;;;;;;;3.40;2.70;;;12.80;57.60;;;;;;4829767;29;20137;-77
2024/03/07 07:11:06;;;;;;;4.50;3.10;;;12.90;57.60;;;;;;4829621;29;20034;-78
2024/03/07 07:13:32;;;;;;;5.32;2.88;;;13.00;57.60;;;;;;4847475;29;20455;-78
2024/03/07 07:15:58;;;;;;;6.10;2.90;;;13.00;57.60;;;;;;4844265;29;20057;-79
2024/03/07 07:18:24;;;;;;;5.47;3.00;;;13.10;57.70;;;;;;4831124;29;20062;-80
2024/03/07 07:20:53;;;;;;;4.68;2.85;;;13.20;57.60;;;;;;4829808;29;20118;-79
2024/03/07 07:23:20;;;;;;;3.85;2.58;;;13.30;57.50;;;;;;4845448;29;20439;-82
2024/03/07 07:25:46;;;;;;;5.25;2.85;;;13.30;57.30;;;;;;4831240;29;20038;-81
2024/03/07 07:28:13;;;;;;;4.60;3.05;;;13.40;57.20;;;;;;4833221;29;20174;-82
2024/03/07 07:30:39;;;;;;;3.08;2.33;;;13.50;57.20;;;;;;4816620;29;20839;-81
2024/03/07 07:33:05;;;;;;;5.00;2.78;;;13.60;57.20;;;;;;4830868;29;20049;-82
2024/03/07 07:35:49;;;;;;;4.18;2.47;;;13.60;57.10;;;;;;4848469;29;20614;-82
2024/03/07 07:38:15;;;;;;;5.07;2.47;;;13.70;57.10;;;;;;4818300;29;20046;-82
2024/03/07 07:40:41;;;;;;;3.88;2.92;;;13.80;57.10;;;;;;4831235;29;20641;-81
2024/03/07 07:43:07;;;;;;;4.95;2.60;;;13.80;57.10;;;;;;4845531;29;20057;-78
2024/03/07 07:45:35;;;;;;;3.53;3.08;;;13.80;57.00;;;;;;4830516;29;20426;-79
2024/03/07 07:48:02;;;;;;;4.15;3.10;;;13.90;57.70;;;;;;4831090;29;20038;-80
2024/03/07 07:50:28;;;;;;;5.70;3.80;;;14.00;57.10;;;;;;4833193;29;20033;-80
2024/03/07 07:52:56;;;;;;;6.28;3.83;;;14.00;57.10;;;;;;4830577;29;20097;-82
2024/03/07 07:55:24;;;;;;;4.75;2.83;;;14.10;57.10;;;;;;4832012;29;20069;-83
2024/03/07 07:57:52;;;;;;;7.03;3.22;;;14.10;57.20;;;;;;4815368;29;20091;-79
2024/03/07 08:00:23;;;;;;;3.55;2.70;;;14.20;57.10;;;;;;4832447;29;20487;-79
2024/03/07 08:02:54;;;;;;;5.60;3.05;;;14.20;56.90;;;;;;4830043;29;20446;-79
2024/03/07 08:05:25;;;;;;;3.50;2.53;;;14.30;56.80;;;;;;4829350;29;20129;-78
2024/03/07 08:07:52;;;;;;;5.00;2.75;;;14.40;56.90;;;;;;4831340;29;20038;-78
2024/03/07 08:10:20;;;;;;;4.93;2.80;;;14.40;56.80;;;;;;4831552;29;20050;-78
2024/03/07 08:12:46;;;;;;;3.97;2.47;;;14.40;56.80;;;;;;4845846;29;20046;-78
2024/03/07 08:15:13;;;;;;;2.80;2.10;;;14.50;56.80;;;;;;4846154;29;20052;-78
2024/03/07 08:17:44;;;;;;;3.83;2.08;;;14.50;56.80;;;;;;4833674;29;20052;-77
2024/03/07 08:20:12;;;;;;;2.75;1.98;;;14.50;56.80;;;;;;4832941;29;20062;-79
2024/03/07 08:22:42;;;;;;;3.03;2.03;;;14.60;56.90;;;;;;4833408;29;21161;-78
2024/03/07 08:25:12;;;;;;;3.03;2.08;;;14.60;57.10;;;;;;4846353;29;20106;-77
2024/03/07 08:27:41;;;;;;;3.42;2.00;;;14.60;57.10;;;;;;4831130;29;20034;-79
2024/03/07 08:30:15;;;;;;;4.20;2.42;;;14.70;57.20;;;;;;4816746;29;20136;-81
2024/03/07 08:32:48;;;;;;;4.15;1.83;;;14.70;57.20;;;;;;4818487;29;20088;-83
2024/03/07 08:35:15;;;;;;;4.72;2.17;;;14.80;56.50;;;;;;4832234;29;20106;-82
2024/03/07 08:37:46;;;;;;;5.05;1.95;;;14.90;55.70;;;;;;4815011;29;20045;-83
2024/03/07 08:40:22;;;;;;;3.15;2.17;;;15.20;55.00;;;;;;4852517;29;20082;-80
2024/03/07 08:42:53;;;;;;;2.33;1.90;;;15.30;54.40;;;;;;4830068;29;20053;-80
2024/03/07 08:45:20;;;;;;;5.90;2.17;;;15.40;55.90;;;;;;4851851;29;20601;-79
2024/03/07 08:47:47;;;;;;;2.63;1.67;;;15.40;56.20;;;;;;4830752;29;20042;-80
2024/03/07 08:50:14;;;;;;;3.08;1.73;;;15.40;55.90;;;;;;4833366;29;20518;-79
2024/03/07 08:52:41;;;;;;;2.08;1.60;;;15.40;55.80;;;;;;4831297;29;20479;-79
2024/03/07 08:55:10;;;;;;;3.45;2.28;;;15.40;55.60;;;;;;4830615;29;20041;-78
2024/03/07 08:57:36;;;;;;;2.10;1.60;;;15.30;55.50;;;;;;4828962;29;20090;-78
2024/03/07 09:00:08;;;;;;;2.78;1.67;;;15.30;55.30;;;;;;4844427;29;20038;-78
2024/03/07 09:02:38;;;;;;;2.42;1.85;;;15.30;55.40;;;;;;4831183;29;20112;-81
2024/03/07 09:05:06;;;;;;;3.70;1.90;;;15.30;55.50;;;;;;4808287;29;20083;-80
2024/03/07 09:07:32;;;;;;;2.17;1.63;;;15.30;55.40;;;;;;4831545;29;20610;-79
2024/03/07 09:09:58;;;;;;;3.90;2.08;;;15.20;55.30;;;;;;4828216;29;20125;-78
2024/03/07 09:12:27;;;;;;;4.03;2.10;;;15.20;55.30;;;;;;4828977;29;20589;-78
2024/03/07 09:14:56;;;;;;;3.33;1.70;;;15.20;55.30;;;;;;4834860;29;20045;-79
2024/03/07 09:17:22;;;;;;;2.97;1.75;;;15.20;55.00;;;;;;4831839;29;20098;-79
2024/03/07 09:19:48;;;;;;;2.42;1.70;;;15.20;55.00;;;;;;4851505;29;20528;-78
2024/03/07 09:22:14;;;;;;;2.03;1.83;;;15.10;54.90;;;;;;4834438;29;20074;-79
2024/03/07 09:24:40;;;;;;;3.55;1.80;;;15.10;54.90;;;;;;4836832;29;20042;-78
2024/03/07 09:27:06;;;;;;;2.00;1.25;;;15.10;54.40;;;;;;4848860;29;20077;-78
2024/03/07 09:29:32;;;;;;;2.95;1.60;;;15.10;53.40;;;;;;4836171;29;20042;-78
2024/03/07 09:31:58;;;;;;;2.80;1.83;;;15.10;53.00;;;;;;4835865;29;20022;-78
2024/03/07 09:34:25;;;;;;;2.42;1.92;;;15.10;52.60;;;;;;4835272;29;20065;-78
2024/03/07 09:36:51;;;;;;;4.05;1.70;;;15.10;52.40;;;;;;4830182;29;20033;-79
2024/03/07 09:39:21;;;;;;;3.22;1.50;;;15.00;52.40;;;;;;4830673;29;20042;-80
2024/03/07 09:41:47;;;;;;;2.55;1.60;;;15.00;52.30;;;;;;4853627;29;20037;-79
2024/03/07 09:44:22;;;;;;;1.92;1.40;;;15.00;51.70;;;;;;4833712;29;20030;-77
2024/03/07 09:46:50;;;;;;;2.47;1.50;;;15.00;52.90;;;;;;4832385;29;20410;-77
2024/03/07 09:49:17;;;;;;;1.77;1.38;;;14.90;52.80;;;;;;4832220;29;20516;-77
2024/03/07 09:51:45;;;;;;;1.50;1.40;;;14.90;53.40;;;;;;4843956;29;20081;-77
2024/03/07 09:54:13;;;;;;;2.80;1.88;;;14.90;53.60;;;;;;4845307;29;20098;-77
2024/03/07 09:56:41;;;;;;;2.35;1.40;;;14.90;53.60;;;;;;4830652;29;20038;-77
2024/03/07 09:59:13;;;;;;;4.72;2.15;;;14.90;53.40;;;;;;4848825;29;20446;-77
2024/03/07 10:01:41;;;;;;;2.88;2.08;;;14.80;52.80;;;;;;4844596;29;20050;-77
2024/03/07 10:04:12;;;;;;;3.58;2.05;;;14.80;53.00;;;;;;4849108;29;20045;-77
2024/03/07 10:06:41;;;;;;;3.63;2.28;;;14.80;53.60;;;;;;4832815;29;20171;-77
2024/03/07 10:09:07;;;;;;;3.70;2.22;;;14.80;54.20;;;;;;4845147;29;20172;-77
2024/03/07 10:11:34;;;;;;;3.35;2.15;;;14.70;54.30;;;;;;4832121;29;20052;-77
2024/03/07 10:14:03;;;;;;;2.85;2.03;;;14.70;54.40;;;;;;4833289;29;20137;-77
2024/03/07 10:16:29;;;;;;;2.83;1.77;;;14.70;54.60;;;;;;4831535;29;20040;-78
2024/03/07 10:18:55;;;;;;;4.55;1.98;;;14.70;54.70;;;;;;4833370;29;21094;-77
2024/03/07 10:21:23;;;;;;;2.72;1.90;;;14.60;54.60;;;;;;4850005;29;20037;-78
2024/03/07 10:23:53;;;;;;;3.15;1.90;;;14.60;54.30;;;;;;4834631;29;20490;-78
2024/03/07 10:26:19;;;;;;;3.38;1.70;;;14.60;53.40;;;;;;4849468;29;20045;-78
2024/03/07 10:28:46;;;;;;;3.88;1.83;;;14.60;53.10;;;;;;4832582;29;20520;-78
2024/03/07 10:31:28;;;;;;;2.35;1.35;;;14.60;52.80;;;;;;4831810;29;20034;-78
2024/03/07 10:33:59;;;;;;;5.45;2.10;;;14.60;52.00;;;;;;4845796;29;20079;-79
2024/03/07 10:36:25;;;;;;;3.47;1.60;;;14.50;51.80;;;;;;4832209;29;20050;-77
2024/03/07 10:38:55;;;;;;;2.45;1.80;;;14.60;51.50;;;;;;4832078;29;20034;-79
2024/03/07 10:41:27;;;;;;;1.88;1.73;;;14.50;51.00;;;;;;4832538;29;20408;-78
2024/03/07 10:43:57;;;;;;;5.18;1.98;;;14.50;51.30;;;;;;4832778;29;20136;-78
2024/03/07 10:46:25;;;;;;;2.63;1.80;;;14.50;51.80;;;;;;4831957;29;20046;-78
2024/03/07 10:48:55;;;;;;;3.55;1.90;;;14.40;51.40;;;;;;4831839;29;20054;-78
2024/03/07 10:51:44;;;;;;;2.10;1.52;;;14.40;51.30;;;;;;4830850;29;20609;-78
2024/03/07 10:54:30;;;;;;;3.92;1.98;;;14.40;51.50;;;;;;4831725;29;20034;-78
2024/03/07 10:57:18;;;;;;;2.97;1.58;;;14.40;51.30;;;;;;4831534;29;20501;-79
2024/03/07 10:59:50;;;;;;;2.00;1.60;;;14.40;51.30;;;;;;4831046;29;20123;-78
2024/03/07 11:02:42;;;;;;;3.13;1.85;;;14.40;50.90;;;;;;4831009;29;20495;-79
2024/03/07 11:05:12;;;;;;;3.05;1.80;;;14.30;50.60;;;;;;4831646;29;20350;-78
2024/03/07 11:07:39;;;;;;;2.65;1.50;;;14.30;50.10;;;;;;4830757;29;20069;-77
2024/03/07 11:10:11;;;;;;;2.65;1.90;;;14.20;50.00;;;;;;4830970;29;20046;-78
2024/03/07 11:12:41;;;;;;;2.22;1.70;;;14.20;50.10;;;;;;4847465;29;20041;-78
2024/03/07 11:15:14;;;;;;;4.50;1.88;;;14.20;49.90;;;;;;4830886;29;20053;-77
2024/03/07 11:17:43;;;;;;;2.50;1.60;;;14.20;49.90;;;;;;4830563;29;20073;-81
2024/03/07 11:20:20;;;;;;;3.10;1.90;;;14.10;49.80;;;;;;4849252;29;20288;-79
2024/03/07 11:22:46;;;;;;;3.17;1.75;;;14.10;49.30;;;;;;4831617;29;20034;-81
2024/03/07 11:25:13;;;;;;;2.38;1.70;;;14.10;50.30;;;;;;4832810;29;20070;-79
2024/03/07 11:27:39;;;;;;;5.80;2.03;;;14.10;50.20;;;;;;4832339;29;20502;-79
2024/03/07 11:30:07;;;;;;;2.25;1.55;;;14.10;49.80;;;;;;4831025;29;20054;-84
2024/03/07 11:32:38;;;;;;;2.92;1.60;;;14.00;50.00;;;;;;4831403;29;20100;-84
2024/03/07 11:35:14;;;;;;;4.85;1.67;;;14.00;50.10;;;;;;4831054;29;20041;-84
2024/03/07 11:37:43;;;;;;;;;;;14.00;50.40;;;;;;4834775;29;20042;-80
2024/03/07 11:40:24;;;;;;;2.15;1.58;;;14.00;49.90;;;;;;4832538;29;19925;-80
2024/03/07 11:42:59;;;;;;;2.97;1.58;;;14.00;50.20;;;;;;4847598;29;20043;-78
2024/03/07 11:45:29;;;;;;;2.03;1.20;;;14.00;51.30;;;;;;4835477;29;20038;-78
2024/03/07 11:48:19;;;;;;;3.03;1.55;;;14.00;52.20;;;;;;4833426;29;20066;-78
2024/03/07 11:50:42;;;;;;;4.63;1.85;;;14.00;51.90;;;;;;4834382;29;20142;-79
2024/03/07 11:53:09;;;;;;;3.63;1.55;;;14.00;51.70;;;;;;4835310;29;20760;-78
2024/03/07 11:55:48;;;;;;;2.58;1.67;;;13.90;51.20;;;;;;4842215;29;20053;-91
2024/03/07 11:58:24;;;;;;;2.67;1.45;;;13.90;51.10;;;;;;4835114;29;20144;-87
2024/03/07 12:00:58;;;;;;;3.47;1.35;;;13.90;50.60;;;;;;4846361;29;20038;-89
2024/03/07 12:03:25;;;;;;;2.95;1.60;;;13.90;50.20;;;;;;4847847;29;20053;-88
2024/03/07 12:05:54;;;;;;;4.22;1.70;;;13.80;50.30;;;;;;4852686;29;20048;-87
2024/03/07 12:08:28;;;;;;;1.85;1.70;;;13.90;50.20;;;;;;4822986;29;20119;-85
2024/03/07 12:10:55;;;;;;;2.92;1.20;;;13.80;50.10;;;;;;4853324;29;20050;-89
2024/03/07 12:13:26;;;;;;;2.55;1.48;;;13.80;50.60;;;;;;4836460;29;20074;-91
2024/03/07 12:15:52;;;;;;;2.90;1.60;;;13.80;50.10;;;;;;4823373;29;20038;-83
2024/03/07 12:18:20;;;;;;;2.25;1.45;;;13.80;50.30;;;;;;4844889;29;20046;-79
2024/03/07 12:20:53;;;;;;;2.08;1.67;;;13.80;50.00;;;;;;4834729;29;20168;-78
2024/03/07 12:23:23;;;;;;;2.58;1.70;;;13.70;50.30;;;;;;4820334;29;20046;-79
2024/03/07 12:26:02;;;;;;;2.47;1.83;;;13.70;50.50;;;;;;4842344;29;20041;-79
2024/03/07 12:28:33;;;;;;;3.22;1.83;;;13.70;50.10;;;;;;4834005;29;20044;-78
2024/03/07 12:31:02;;;;;;;3.88;1.73;;;13.70;50.10;;;;;;4833758;29;20042;-79
2024/03/07 12:33:30;;;;;;;2.03;1.38;;;13.70;49.60;;;;;;4834662;29;20098;-83
2024/03/07 12:36:06;;;;;;;2.88;1.75;;;13.70;49.70;;;;;;4836166;29;20075;-81
2024/03/07 12:38:35;;;;;;;3.05;1.70;;;13.70;49.80;;;;;;4805920;29;20040;-82
2024/03/07 12:41:15;;;;;;;2.78;1.40;;;13.60;49.70;;;;;;4834567;29;20170;-81
2024/03/07 12:43:42;;;;;;;4.28;2.00;;;13.60;49.60;;;;;;4835571;29;20038;-81
2024/03/07 12:46:12;;;;;;;3.72;1.80;;;13.70;49.20;;;;;;4835920;29;20034;-80
2024/03/07 12:48:38;;;;;;;3.53;1.80;;;13.60;49.30;;;;;;4850774;29;20514;-82
2024/03/07 12:51:05;;;;;;;2.22;1.73;;;13.60;49.90;;;;;;4842591;29;20046;-81
2024/03/07 12:53:31;;;;;;;3.58;1.50;;;13.60;49.70;;;;;;4834627;29;20152;-82
2024/03/07 12:55:57;;;;;;;3.08;1.70;;;13.60;49.90;;;;;;4833367;29;20305;-79